createdAt,value
2022-11-24T00:04:26.573Z,4.14
2022-11-24T00:09:28.043Z,4.09
2022-11-24T00:14:29.461Z,4.05
2022-11-24T00:19:30.899Z,4.03
2022-11-24T00:24:32.748Z,4.04
2022-11-24T00:29:34.357Z,4.00
2022-11-24T00:34:36.105Z,4.05
2022-11-24T00:39:37.677Z,4.04
2022-11-24T00:44:39.106Z,4.07
2022-11-24T00:49:40.532Z,4.02
2022-11-24T00:54:41.975Z,4.00
2022-11-24T00:59:43.407Z,4.02
2022-11-24T01:04:44.842Z,4.09
2022-11-24T01:09:46.267Z,4.00
2022-11-24T01:14:47.714Z,4.05
2022-11-24T01:19:49.217Z,4.08
2022-11-24T01:24:50.656Z,4.05
2022-11-24T01:29:52.077Z,4.09
2022-11-24T01:34:53.623Z,4.17
2022-11-24T01:39:55.169Z,4.18
2022-11-24T01:45:37.000Z,4.19
2022-11-24T01:50:38.901Z,4.19
2022-11-24T01:55:41.155Z,4.19
2022-11-24T02:00:44.672Z,4.19
2022-11-24T02:05:48.205Z,4.26
2022-11-24T02:10:49.689Z,4.31
2022-11-24T02:15:52.917Z,4.28
2022-11-24T02:20:55.535Z,4.29
2022-11-24T02:26:16.299Z,4.30
2022-11-24T02:31:18.059Z,4.32
2022-11-24T02:36:19.534Z,4.38
2022-11-24T02:41:25.399Z,4.44
2022-11-24T02:46:27.001Z,4.40
2022-11-24T02:51:29.552Z,4.46
2022-11-24T02:56:30.997Z,4.43
2022-11-24T03:01:32.488Z,4.40
2022-11-24T03:06:33.972Z,4.47
2022-11-24T03:11:35.508Z,4.43
2022-11-24T03:16:37.056Z,4.47
2022-11-24T03:21:38.522Z,4.49
2022-11-24T03:26:40.229Z,4.61
2022-11-24T03:31:41.852Z,4.55
2022-11-24T03:36:43.411Z,4.57
2022-11-24T03:41:44.867Z,4.60
2022-11-24T03:46:46.361Z,4.63
2022-11-24T03:51:47.825Z,4.60
2022-11-24T03:56:49.449Z,4.60
2022-11-24T04:01:51.071Z,4.58
2022-11-24T04:06:52.531Z,4.59
2022-11-24T04:12:12.505Z,4.60
2022-11-24T04:17:13.943Z,4.73
2022-11-24T04:22:15.383Z,4.70
2022-11-24T04:27:16.852Z,4.76
2022-11-24T04:32:18.370Z,4.81
2022-11-24T04:37:19.859Z,4.92
2022-11-24T04:42:21.579Z,4.93
2022-11-24T04:47:24.885Z,5.05
2022-11-24T04:52:26.589Z,5.00
2022-11-24T04:57:28.118Z,4.95
2022-11-24T05:02:29.594Z,5.03
2022-11-24T05:07:31.118Z,5.03
2022-11-24T05:12:33.489Z,5.09
2022-11-24T05:17:38.207Z,5.04
2022-11-24T05:22:39.654Z,5.05
2022-11-24T05:27:41.362Z,5.01
2022-11-24T05:32:42.786Z,5.04
2022-11-24T05:37:44.854Z,5.10
2022-11-24T05:42:48.119Z,5.10
2022-11-24T05:47:51.392Z,5.11
2022-11-24T05:52:52.828Z,5.23
2022-11-24T05:58:01.719Z,5.26
2022-11-24T06:03:03.463Z,5.26
2022-11-24T06:08:05.416Z,5.29
2022-11-24T06:13:07.842Z,5.29
2022-11-24T06:18:09.375Z,5.34
2022-11-24T06:23:10.879Z,5.29
2022-11-24T06:28:12.355Z,5.28
2022-11-24T06:33:14.364Z,5.26
2022-11-24T06:38:20.113Z,5.23
2022-11-24T06:43:27.778Z,5.29
2022-11-24T06:48:30.064Z,5.24
2022-11-24T06:53:33.044Z,5.24
2022-11-24T06:58:35.129Z,5.21
2022-11-24T07:03:36.660Z,5.27
2022-11-24T07:08:38.203Z,5.22
2022-11-24T07:13:39.760Z,5.26
2022-11-24T07:18:42.378Z,5.36
2022-11-24T07:23:44.135Z,5.31
2022-11-24T07:28:45.922Z,5.29
2022-11-24T07:33:52.373Z,5.36
2022-11-24T07:38:53.879Z,5.41
2022-11-24T07:43:55.579Z,5.42
2022-11-24T07:48:57.130Z,5.49
2022-11-24T07:53:58.761Z,5.54
2022-11-24T07:59:00.420Z,5.58
2022-11-24T08:04:02.481Z,5.71
2022-11-24T08:09:04.072Z,5.74
2022-11-24T08:14:05.519Z,5.67
2022-11-24T08:19:07.038Z,5.73
2022-11-24T08:24:08.786Z,5.76
2022-11-24T08:29:10.501Z,5.77
2022-11-24T08:34:11.928Z,5.89
2022-11-24T08:39:13.436Z,5.94
2022-11-24T08:44:17.456Z,5.97
2022-11-24T08:49:19.009Z,6.04
2022-11-24T08:54:25.596Z,6.13
2022-11-24T08:59:27.128Z,6.22
2022-11-24T09:04:28.664Z,6.28
2022-11-24T09:09:30.173Z,6.31
2022-11-24T09:14:31.823Z,6.28
2022-11-24T09:19:33.699Z,6.35
2022-11-24T09:24:35.338Z,6.39
2022-11-24T09:29:36.965Z,6.44
2022-11-24T09:34:38.535Z,6.49
2022-11-24T09:39:40.047Z,6.45
2022-11-24T09:45:02.968Z,6.49
2022-11-24T09:50:11.161Z,6.47
2022-11-24T09:55:28.240Z,6.53
2022-11-24T10:00:30.073Z,6.57
2022-11-24T10:05:36.062Z,6.57
2022-11-24T10:10:53.542Z,6.55
2022-11-24T10:16:06.985Z,6.54
2022-11-24T10:21:37.482Z,6.62
2022-11-24T10:26:46.937Z,6.69
2022-11-24T10:31:53.692Z,6.71
2022-11-24T10:37:22.801Z,6.82
2022-11-24T10:42:36.910Z,6.77
2022-11-24T10:47:39.074Z,6.85
2022-11-24T10:52:44.928Z,6.85
2022-11-24T10:57:46.455Z,6.87
2022-11-24T11:02:49.484Z,6.89
2022-11-24T11:07:51.065Z,6.98
2022-11-24T11:12:52.610Z,7.01
2022-11-24T11:17:58.088Z,7.15
2022-11-24T11:23:13.264Z,7.18
2022-11-24T11:28:21.680Z,7.31
2022-11-24T11:38:52.830Z,7.24
2022-11-24T11:44:08.861Z,7.23
2022-11-24T11:49:13.252Z,7.34
2022-11-24T11:54:39.211Z,7.32
2022-11-24T12:00:05.003Z,7.31
2022-11-24T12:05:19.941Z,7.36
2022-11-24T12:10:36.095Z,7.35
2022-11-24T12:15:42.512Z,7.45
2022-11-24T12:20:52.826Z,7.52
2022-11-24T12:26:04.014Z,7.51
2022-11-24T12:31:07.007Z,7.51
2022-11-24T12:36:26.800Z,7.44
2022-11-24T12:41:42.524Z,7.49
2022-11-24T12:47:09.342Z,7.40
2022-11-24T12:52:37.444Z,7.43
2022-11-24T12:57:54.749Z,7.42
2022-11-24T13:03:27.020Z,7.33
2022-11-24T13:08:30.916Z,7.42
2022-11-24T13:14:10.667Z,7.35
2022-11-24T13:19:19.629Z,7.28
2022-11-24T13:24:24.837Z,7.31
2022-11-24T13:29:37.542Z,7.28
2022-11-24T13:34:39.067Z,7.35
2022-11-24T13:40:12.121Z,7.31
2022-11-24T13:45:50.594Z,7.25
2022-11-24T13:50:53.212Z,7.20
2022-11-24T13:55:59.257Z,7.21
2022-11-24T14:01:03.719Z,7.20
2022-11-24T14:06:05.957Z,7.17
2022-11-24T14:11:17.096Z,7.25
2022-11-24T14:16:21.261Z,7.17
2022-11-24T14:21:30.032Z,7.21
2022-11-24T14:26:37.638Z,7.18
2022-11-24T14:31:39.308Z,7.18
2022-11-24T14:36:41.692Z,7.20
2022-11-24T14:41:54.508Z,7.21
2022-11-24T14:47:05.248Z,7.19
2022-11-24T14:52:14.124Z,7.16
2022-11-24T14:57:37.773Z,7.14
2022-11-24T15:02:53.396Z,7.11
2022-11-24T15:08:03.087Z,7.07
2022-11-24T15:13:16.211Z,7.04
2022-11-24T15:18:27.563Z,7.07
2022-11-24T15:23:36.541Z,7.04
2022-11-24T15:28:38.486Z,7.09
2022-11-24T15:33:41.451Z,7.09
2022-11-24T15:38:42.969Z,7.06
2022-11-24T15:43:44.438Z,7.04
2022-11-24T15:48:46.133Z,6.98
2022-11-24T15:53:54.113Z,6.96
2022-11-24T15:58:58.884Z,6.98
2022-11-24T16:04:02.517Z,7.01
2022-11-24T16:09:03.992Z,7.00
2022-11-24T16:14:05.543Z,7.02
2022-11-24T16:19:09.313Z,7.02
2022-11-24T16:24:10.898Z,6.99
2022-11-24T16:29:12.401Z,7.01
2022-11-24T16:34:15.263Z,7.05
2022-11-24T16:39:16.816Z,7.05
2022-11-24T16:44:18.239Z,7.11
2022-11-24T16:49:19.864Z,7.02
2022-11-24T16:54:21.404Z,7.12
2022-11-24T16:59:22.894Z,7.07
2022-11-24T17:04:24.403Z,7.13
2022-11-24T17:09:25.854Z,7.11
2022-11-24T17:14:27.410Z,7.09
2022-11-24T17:19:31.625Z,7.09
2022-11-24T17:24:33.377Z,7.11
2022-11-24T17:29:35.059Z,7.22
2022-11-24T17:34:36.702Z,7.30
2022-11-24T17:39:38.442Z,7.21
2022-11-24T17:44:39.949Z,7.24
2022-11-24T17:49:41.388Z,7.30
2022-11-24T17:54:56.598Z,7.26
2022-11-24T17:59:58.165Z,7.27
2022-11-24T18:04:59.754Z,7.26
2022-11-24T18:10:01.238Z,7.24
2022-11-24T18:15:02.822Z,7.20
2022-11-24T18:20:04.880Z,7.26
2022-11-24T18:25:06.978Z,7.22
2022-11-24T18:30:08.776Z,7.30
2022-11-24T18:35:10.597Z,7.35
2022-11-24T18:40:12.140Z,7.45
2022-11-24T18:45:13.679Z,7.43
2022-11-24T18:50:16.676Z,7.46
2022-11-24T18:55:18.176Z,7.42
2022-11-24T19:00:22.257Z,7.41
2022-11-24T19:05:23.780Z,7.50
2022-11-24T19:10:25.217Z,7.42
2022-11-24T19:15:26.741Z,7.50
2022-11-24T19:20:28.526Z,7.53
2022-11-24T19:25:30.064Z,7.51
2022-11-24T19:30:31.613Z,7.41
2022-11-24T19:35:33.090Z,7.48
2022-11-24T19:40:34.705Z,7.38
2022-11-24T19:45:36.197Z,7.25
2022-11-24T19:50:37.696Z,7.21
2022-11-24T19:55:39.212Z,7.10
2022-11-24T20:00:40.701Z,6.87
2022-11-24T20:05:42.171Z,6.76
2022-11-24T20:10:44.559Z,6.65
2022-11-24T20:15:46.095Z,6.43
2022-11-24T20:20:47.600Z,6.37
2022-11-24T20:25:49.030Z,6.19
2022-11-24T20:30:50.543Z,6.23
2022-11-24T20:35:52.003Z,6.13
2022-11-24T20:40:53.442Z,6.04
2022-11-24T20:45:54.954Z,5.93
2022-11-24T20:50:57.033Z,5.75
2022-11-24T20:56:06.739Z,5.64
2022-11-24T21:01:14.381Z,5.70
2022-11-24T21:06:16.069Z,5.61
2022-11-24T21:11:19.213Z,5.41
2022-11-24T21:16:24.881Z,5.23
2022-11-24T21:21:33.875Z,5.22
2022-11-24T21:26:36.935Z,5.08
2022-11-24T21:31:38.817Z,4.91
2022-11-24T21:36:44.596Z,4.83
2022-11-24T21:41:46.185Z,4.79
2022-11-24T21:46:52.717Z,4.73
2022-11-24T21:51:57.294Z,4.67
2022-11-24T21:56:58.731Z,4.63
2022-11-24T22:02:00.385Z,4.53
2022-11-24T22:07:01.840Z,4.51
2022-11-24T22:12:03.384Z,4.63
2022-11-24T22:17:04.861Z,4.77
2022-11-24T22:22:06.385Z,4.92
2022-11-24T22:27:07.890Z,5.00
2022-11-24T22:32:09.435Z,5.10
2022-11-24T22:37:10.943Z,5.18
2022-11-24T22:42:12.432Z,5.17
2022-11-24T22:47:13.920Z,5.16
2022-11-24T22:52:15.386Z,5.05
2022-11-24T22:57:16.905Z,4.95
2022-11-24T23:02:18.399Z,4.73
2022-11-24T23:07:19.983Z,4.54
2022-11-24T23:12:21.517Z,4.30
2022-11-24T23:17:23.010Z,4.13
2022-11-24T23:22:24.545Z,3.94
2022-11-24T23:27:25.985Z,3.77
2022-11-24T23:32:27.527Z,3.61
2022-11-24T23:37:52.211Z,3.51
2022-11-24T23:42:50.413Z,3.42
2022-11-24T23:47:53.390Z,3.34
2022-11-24T23:52:54.871Z,3.30
2022-11-24T23:57:56.390Z,3.25
